LGA weather

La Guardia Airport
New York, New York, United States

Public forecast

Using degrees Fahrenheit for public forecast. Weather courtesy of forecast.io.

METAR (pilot weather report)

Retrieved 2019/04/21 11:51 UTC (40 minutes ago):

KLGA 211151Z 12008KT 10SM FEW015 SCT055 SCT070 BKN170 BKN250 12/10 A2994 RMK AO2 SLP139 VIRGA SE 60000 70035 T01220100 10128 20117 51017

TAF (pilot weather forecast)

Retrieved 2019/04/21 12:30 UTC (1 minute ago):

TAF KLGA 211127Z 2112/2218 16007KT P6SM SCT050 BKN070 BKN250 FM211400 16008KT P6SM BKN080 FM211700 15010KT P6SM SCT080 BKN250 FM220200 VRB05KT P6SM BKN080 FM221200 03006KT P6SM SCT030 BKN050